Terminal Aerodrome Forecast
Issued by NWS Memphis, TN

Home | Current Version | Previous Version | Text Only | Print | Product List | Glossary On
Versions: 1 2 3 4 5 6 7 8 9 10 11 12 13 14 15 16 17 18 19 20 21 22
000
FTUS44 KMEG 251315 AAB
TAFMKL
TAF AMD
KMKL 251315Z 2513/2612 30006KT P6SM FEW100 BKN250
     FM251800 31007KT P6SM BKN100 OVC250
     FM260000 33003KT P6SM VCSH SCT035 OVC060
      TEMPO 2600/2603 -RA BKN035
     FM260300 VRB03KT 6SM -RA BR SCT015 OVC035
     FM260600 VRB03KT 5SM RA BR SCT009 OVC015=

USA.gov is the U.S. government's official web portal to all federal, state and local government web resources and services.